createdAt,value
2022-08-16T00:00:47.567Z,3.03
2022-08-16T00:03:39.124Z,3.72
2022-08-16T00:06:29.328Z,5.50
2022-08-16T00:09:16.628Z,3.80
2022-08-16T00:12:03.946Z,2.83
2022-08-16T00:14:56.871Z,2.53
2022-08-16T00:17:57.105Z,4.47
2022-08-16T00:20:47.763Z,4.38
2022-08-16T00:23:40.451Z,2.50
2022-08-16T00:26:43.969Z,4.75
2022-08-16T00:29:33.353Z,3.05
2022-08-16T00:32:23.393Z,2.25
2022-08-16T00:35:18.936Z,4.10
2022-08-16T00:38:40.670Z,3.17
2022-08-16T00:41:15.955Z,2.75
2022-08-16T00:44:13.637Z,2.85
2022-08-16T00:47:08.696Z,2.95
2022-08-16T00:52:45.850Z,3.35
2022-08-16T00:55:43.081Z,2.50
2022-08-16T00:58:35.056Z,2.80
2022-08-16T01:01:23.319Z,2.20
2022-08-16T01:04:29.219Z,3.10
2022-08-16T01:07:20.162Z,2.33
2022-08-16T01:10:15.824Z,3.75
2022-08-16T01:13:07.493Z,4.68
2022-08-16T01:16:02.932Z,2.72
2022-08-16T01:18:56.425Z,3.67
2022-08-16T01:21:53.446Z,5.60
2022-08-16T01:24:54.140Z,3.08
2022-08-16T01:27:49.554Z,4.10
2022-08-16T01:30:49.891Z,3.92
2022-08-16T01:33:38.618Z,4.28
2022-08-16T01:36:32.919Z,3.03
2022-08-16T01:39:19.954Z,4.75
2022-08-16T01:42:13.183Z,4.22
2022-08-16T01:45:00.603Z,4.13
2022-08-16T01:47:52.233Z,5.32
2022-08-16T01:51:08.251Z,3.90
2022-08-16T01:53:55.507Z,4.50
2022-08-16T01:56:47.541Z,4.95
2022-08-16T01:59:39.818Z,5.70
2022-08-16T02:02:29.201Z,4.57
2022-08-16T02:05:16.547Z,3.30
2022-08-16T02:08:06.106Z,2.30
2022-08-16T02:10:55.525Z,3.55
2022-08-16T02:13:44.105Z,2.70
2022-08-16T02:16:37.429Z,2.80
2022-08-16T02:19:59.920Z,2.80
2022-08-16T02:22:34.160Z,3.15
2022-08-16T02:25:23.079Z,3.70
2022-08-16T02:28:10.310Z,4.82
2022-08-16T02:31:01.237Z,2.88
2022-08-16T02:33:50.785Z,3.05
2022-08-16T02:36:49.603Z,3.17
2022-08-16T02:39:39.263Z,3.20
2022-08-16T02:42:29.152Z,2.75
2022-08-16T02:45:16.887Z,2.75
2022-08-16T02:48:30.289Z,2.88
2022-08-16T02:51:13.056Z,2.88
2022-08-16T02:54:02.578Z,2.85
2022-08-16T02:56:49.580Z,2.90
2022-08-16T02:59:39.782Z,2.85
2022-08-16T03:02:32.023Z,3.50
2022-08-16T03:05:25.379Z,2.50
2022-08-16T03:08:49.796Z,4.72
2022-08-16T03:11:35.372Z,2.25
2022-08-16T03:14:24.799Z,3.23
2022-08-16T03:17:16.844Z,2.80
2022-08-16T03:20:06.498Z,4.13
2022-08-16T03:22:58.482Z,4.80
2022-08-16T03:25:48.444Z,3.50
2022-08-16T03:28:35.884Z,3.67
2022-08-16T03:31:24.108Z,6.45
2022-08-16T03:34:11.868Z,2.30
2022-08-16T03:37:02.107Z,2.47
2022-08-16T03:39:49.448Z,4.32
2022-08-16T03:43:18.950Z,2.05
2022-08-16T03:45:55.281Z,4.82
2022-08-16T03:48:45.261Z,2.45
2022-08-16T03:51:37.849Z,3.30
2022-08-16T03:54:28.449Z,3.20
2022-08-16T03:57:17.744Z,4.43
2022-08-16T04:00:20.532Z,6.40
2022-08-16T04:03:24.201Z,3.28
2022-08-16T04:06:12.022Z,3.55
2022-08-16T04:08:59.088Z,4.25
2022-08-16T04:11:49.203Z,4.68
2022-08-16T04:14:46.599Z,4.75
2022-08-16T04:17:35.819Z,4.72
2022-08-16T04:20:33.731Z,3.20
2022-08-16T04:23:25.192Z,2.90
2022-08-16T04:26:16.728Z,6.10
2022-08-16T04:29:15.307Z,3.28
2022-08-16T04:32:11.362Z,3.78
2022-08-16T04:35:09.394Z,5.85
2022-08-16T04:38:10.891Z,3.53
2022-08-16T04:41:12.372Z,4.53
2022-08-16T04:44:01.192Z,4.20
2022-08-16T04:47:01.392Z,4.40
2022-08-16T04:49:52.343Z,3.83
2022-08-16T04:52:42.442Z,3.65
2022-08-16T04:55:38.118Z,3.63
2022-08-16T04:58:45.639Z,3.25
2022-08-16T05:01:58.991Z,4.47
2022-08-16T05:04:44.596Z,4.82
2022-08-16T05:07:34.711Z,3.97
2022-08-16T05:10:29.799Z,8.38
2022-08-16T05:13:19.235Z,5.35
2022-08-16T05:16:11.925Z,6.85
2022-08-16T05:19:11.785Z,5.28
2022-08-16T05:22:19.271Z,5.53
2022-08-16T05:25:14.341Z,5.20
2022-08-16T05:28:11.907Z,4.93
2022-08-16T05:31:06.837Z,4.70
2022-08-16T05:33:54.751Z,5.75
2022-08-16T05:36:44.584Z,4.90
2022-08-16T05:39:33.374Z,5.78
2022-08-16T05:45:27.269Z,3.95
2022-08-16T05:48:19.287Z,6.03
2022-08-16T05:51:38.569Z,4.93
2022-08-16T05:54:27.368Z,8.25
2022-08-16T06:00:22.298Z,5.07
2022-08-16T06:03:14.560Z,3.95
2022-08-16T06:06:28.052Z,5.63
2022-08-16T06:09:19.137Z,4.88
2022-08-16T06:12:06.952Z,8.10
2022-08-16T06:14:59.515Z,4.95
2022-08-16T06:17:51.632Z,4.13
2022-08-16T06:20:51.684Z,4.32
2022-08-16T06:23:46.118Z,6.70
2022-08-16T06:26:37.419Z,2.95
2022-08-16T06:29:25.934Z,4.10
2022-08-16T06:32:27.901Z,3.58
2022-08-16T06:35:17.732Z,4.72
2022-08-16T06:38:32.161Z,5.30
2022-08-16T06:41:16.355Z,4.65
2022-08-16T06:44:03.904Z,5.03
2022-08-16T06:46:53.074Z,5.40
2022-08-16T06:49:41.386Z,4.90
2022-08-16T06:53:08.658Z,7.07
2022-08-16T06:55:45.001Z,6.03
2022-08-16T06:58:36.943Z,4.85
2022-08-16T07:01:43.097Z,6.20
2022-08-16T07:04:37.143Z,3.83
2022-08-16T07:07:36.326Z,3.72
2022-08-16T07:10:27.662Z,4.80
2022-08-16T07:13:26.697Z,4.45
2022-08-16T07:16:27.830Z,3.08
2022-08-16T07:19:17.561Z,3.30
2022-08-16T07:22:07.171Z,8.32
2022-08-16T07:25:16.765Z,6.53
2022-08-16T07:28:06.660Z,5.72
2022-08-16T07:31:03.460Z,6.00
2022-08-16T07:33:55.068Z,4.47
2022-08-16T07:36:51.298Z,3.33
2022-08-16T07:39:51.608Z,3.30
2022-08-16T07:42:40.854Z,4.55
2022-08-16T07:45:29.115Z,5.68
2022-08-16T07:48:23.955Z,3.45
2022-08-16T07:51:14.646Z,3.80
2022-08-16T07:54:09.523Z,5.50
2022-08-16T07:57:03.555Z,2.85
2022-08-16T07:59:51.945Z,5.10
2022-08-16T08:02:40.917Z,5.15
2022-08-16T08:05:38.192Z,4.63
2022-08-16T08:08:49.500Z,4.78
2022-08-16T08:11:35.176Z,3.95
2022-08-16T08:14:30.000Z,7.28
2022-08-16T08:17:20.126Z,3.92
2022-08-16T08:20:10.847Z,4.68
2022-08-16T08:23:01.840Z,5.63
2022-08-16T08:25:58.062Z,3.38
2022-08-16T08:28:48.187Z,4.35
2022-08-16T08:31:37.604Z,6.93
2022-08-16T08:34:27.443Z,3.78
2022-08-16T08:37:16.265Z,6.35
2022-08-16T08:40:08.687Z,5.50
2022-08-16T08:43:00.919Z,4.13
2022-08-16T08:46:18.384Z,9.30
2022-08-16T08:49:46.417Z,4.70
2022-08-16T08:52:44.427Z,3.47
2022-08-16T08:55:37.222Z,6.53
2022-08-16T08:58:24.334Z,7.68
2022-08-16T09:01:42.876Z,8.40
2022-08-16T09:04:44.718Z,6.25
2022-08-16T09:08:00.118Z,4.03
2022-08-16T09:11:02.387Z,3.72
2022-08-16T09:13:51.994Z,4.90
2022-08-16T09:17:01.680Z,3.80
2022-08-16T09:19:55.212Z,4.20
2022-08-16T09:22:51.326Z,3.50
2022-08-16T09:25:44.559Z,6.85
2022-08-16T09:29:06.776Z,5.15
2022-08-16T09:31:45.761Z,3.40
2022-08-16T09:34:33.404Z,5.57
2022-08-16T09:37:20.140Z,4.07
2022-08-16T09:40:33.080Z,4.38
2022-08-16T09:43:59.422Z,5.80
2022-08-16T09:46:48.261Z,4.90
2022-08-16T09:49:37.540Z,3.78
2022-08-16T09:52:28.773Z,4.15
2022-08-16T09:55:17.291Z,4.75
2022-08-16T09:58:04.603Z,6.82
2022-08-16T10:00:53.377Z,4.88
2022-08-16T10:04:01.602Z,10.43
2022-08-16T10:06:50.518Z,6.50
2022-08-16T10:09:44.834Z,6.40
2022-08-16T10:12:56.902Z,5.47
2022-08-16T10:15:47.999Z,4.95
2022-08-16T10:19:02.086Z,6.80
2022-08-16T10:21:56.200Z,5.93
2022-08-16T10:24:56.218Z,6.32
2022-08-16T10:28:01.099Z,3.45
2022-08-16T10:30:56.531Z,5.65
2022-08-16T10:33:48.794Z,5.40
2022-08-16T10:36:38.640Z,6.00
2022-08-16T10:39:27.212Z,6.35
2022-08-16T10:42:28.568Z,4.68
2022-08-16T10:45:17.380Z,6.43
2022-08-16T10:48:06.593Z,3.97
2022-08-16T10:51:16.256Z,4.95
2022-08-16T10:54:06.055Z,3.53
2022-08-16T10:57:13.120Z,4.88
2022-08-16T11:00:03.201Z,4.00
2022-08-16T11:02:58.932Z,4.53
2022-08-16T11:06:06.454Z,6.57
2022-08-16T11:12:13.839Z,6.78
2022-08-16T11:15:12.141Z,4.43
2022-08-16T11:21:08.112Z,5.35
2022-08-16T11:23:58.130Z,5.07
2022-08-16T11:27:18.422Z,4.28
2022-08-16T11:29:57.883Z,4.97
2022-08-16T11:32:45.163Z,3.97
2022-08-16T11:38:51.637Z,5.57
2022-08-16T11:41:49.327Z,6.28
2022-08-16T11:44:52.353Z,4.45
2022-08-16T11:47:40.975Z,4.47
2022-08-16T11:50:28.862Z,4.93
2022-08-16T11:53:18.236Z,4.63
2022-08-16T11:56:06.926Z,6.65
2022-08-16T11:58:57.880Z,4.50
2022-08-16T12:01:59.347Z,3.78
2022-08-16T12:04:51.791Z,4.43
2022-08-16T12:10:30.111Z,3.60
2022-08-16T12:13:21.322Z,3.30
2022-08-16T12:16:10.834Z,7.32
2022-08-16T12:18:58.172Z,5.45
2022-08-16T12:21:58.324Z,3.65
2022-08-16T12:24:50.937Z,4.88
2022-08-16T12:27:40.930Z,4.53
2022-08-16T12:30:35.020Z,6.10
2022-08-16T12:33:27.373Z,5.07
2022-08-16T12:36:17.053Z,3.58
2022-08-16T12:39:07.008Z,3.65
2022-08-16T12:41:54.053Z,5.65
2022-08-16T12:44:42.106Z,4.07
2022-08-16T12:47:43.562Z,4.47
2022-08-16T12:50:32.976Z,6.20
2022-08-16T12:53:19.968Z,4.20
2022-08-16T12:56:07.405Z,2.35
2022-08-16T12:58:59.529Z,7.88
2022-08-16T13:01:47.805Z,5.95
2022-08-16T13:04:37.909Z,7.97
2022-08-16T13:07:27.559Z,4.30
2022-08-16T13:10:37.458Z,4.18
2022-08-16T13:13:25.559Z,3.35
2022-08-16T13:16:20.441Z,2.65
2022-08-16T13:19:08.193Z,4.20
2022-08-16T13:21:56.432Z,4.72
2022-08-16T13:24:45.091Z,3.50
2022-08-16T13:27:34.894Z,7.30
2022-08-16T13:30:42.488Z,4.63
2022-08-16T13:33:37.050Z,4.78
2022-08-16T13:36:48.448Z,5.72
2022-08-16T13:39:32.806Z,3.95
2022-08-16T13:42:21.418Z,8.52
2022-08-16T13:45:10.347Z,8.65
2022-08-16T13:48:02.720Z,8.18
2022-08-16T13:50:52.634Z,6.05
2022-08-16T13:53:41.177Z,4.07
2022-08-16T13:56:36.958Z,3.55
2022-08-16T13:59:29.645Z,5.03
2022-08-16T14:02:17.029Z,4.85
2022-08-16T14:05:05.957Z,4.03
2022-08-16T14:07:53.323Z,5.70
2022-08-16T14:10:41.256Z,3.45
2022-08-16T14:13:29.663Z,5.93
2022-08-16T14:16:24.417Z,8.68
2022-08-16T14:19:22.500Z,8.82
2022-08-16T14:22:15.373Z,12.88
2022-08-16T14:25:21.784Z,20.42
2022-08-16T14:28:11.212Z,4.75
2022-08-16T14:31:01.854Z,4.78
2022-08-16T14:33:53.008Z,3.15
2022-08-16T14:36:40.927Z,4.40
2022-08-16T14:39:30.026Z,5.63
2022-08-16T14:42:21.126Z,10.98
2022-08-16T14:45:11.704Z,5.53
2022-08-16T14:48:01.234Z,3.72
2022-08-16T14:50:50.240Z,6.53
2022-08-16T14:53:38.491Z,5.47
2022-08-16T14:56:38.906Z,6.40
2022-08-16T14:59:31.585Z,5.82
2022-08-16T15:02:33.903Z,5.15
2022-08-16T15:05:24.934Z,3.13
2022-08-16T15:08:20.363Z,3.85
2022-08-16T15:11:08.545Z,4.07
2022-08-16T15:13:58.461Z,4.45
2022-08-16T15:16:46.825Z,4.57
2022-08-16T15:19:36.916Z,5.18
2022-08-16T15:22:31.544Z,4.50
2022-08-16T15:25:29.033Z,3.58
2022-08-16T15:28:23.473Z,4.78
2022-08-16T15:31:19.238Z,3.45
2022-08-16T15:34:06.951Z,5.80
2022-08-16T15:37:01.090Z,4.78
2022-08-16T15:39:53.790Z,5.43
2022-08-16T15:42:54.160Z,2.83
2022-08-16T15:45:55.899Z,4.72
2022-08-16T15:48:42.443Z,5.65
2022-08-16T15:51:30.985Z,7.65
2022-08-16T15:54:30.081Z,4.55
2022-08-16T15:57:18.864Z,4.05
2022-08-16T16:00:14.398Z,4.78
2022-08-16T16:03:08.752Z,3.45
2022-08-16T16:06:01.125Z,5.97
2022-08-16T16:08:51.401Z,3.75
2022-08-16T16:11:41.469Z,3.95
2022-08-16T16:14:30.301Z,4.80
2022-08-16T16:17:20.374Z,6.28
2022-08-16T16:20:14.617Z,6.80
2022-08-16T16:23:10.115Z,5.50
2022-08-16T16:25:59.863Z,5.88
2022-08-16T16:29:08.167Z,7.82
2022-08-16T16:32:05.075Z,7.20
2022-08-16T16:34:55.940Z,3.58
2022-08-16T16:37:43.982Z,4.68
2022-08-16T16:40:33.476Z,4.10
2022-08-16T16:43:26.065Z,7.53
2022-08-16T16:46:41.950Z,5.82
2022-08-16T16:49:30.386Z,5.55
2022-08-16T16:52:44.127Z,4.13
2022-08-16T16:55:28.135Z,4.55
2022-08-16T16:58:36.402Z,4.13
2022-08-16T17:01:41.539Z,7.55
2022-08-16T17:04:32.733Z,3.17
2022-08-16T17:07:24.293Z,8.40
2022-08-16T17:10:13.546Z,5.63
2022-08-16T17:13:23.775Z,5.32
2022-08-16T17:19:21.944Z,3.65
2022-08-16T17:22:15.423Z,7.78
2022-08-16T17:25:07.359Z,15.05
2022-08-16T17:27:56.770Z,7.13
2022-08-16T17:30:46.574Z,6.80
2022-08-16T17:33:37.034Z,5.65
2022-08-16T17:36:36.269Z,6.63
2022-08-16T17:39:25.543Z,4.40
2022-08-16T17:39:28.662Z,5.90
2022-08-16T17:42:18.279Z,5.30
2022-08-16T17:47:54.374Z,8.77
2022-08-16T17:50:43.546Z,6.88
2022-08-16T17:53:32.678Z,7.63
2022-08-16T17:56:22.571Z,7.60
2022-08-16T17:59:12.149Z,9.23
2022-08-16T18:02:00.013Z,7.22
2022-08-16T18:07:50.838Z,9.25
2022-08-16T18:10:40.262Z,6.35
2022-08-16T18:13:29.677Z,6.10
2022-08-16T18:16:18.767Z,8.00
2022-08-16T18:19:06.779Z,4.60
2022-08-16T18:22:11.890Z,5.43
2022-08-16T18:24:58.851Z,6.43
2022-08-16T18:27:45.068Z,7.10
2022-08-16T18:30:32.968Z,5.70
2022-08-16T18:33:24.406Z,5.72
2022-08-16T18:36:20.627Z,7.07
2022-08-16T18:39:10.485Z,4.03
2022-08-16T18:41:58.165Z,6.45
2022-08-16T18:44:46.925Z,7.35
2022-08-16T18:47:34.679Z,6.75
2022-08-16T18:50:27.890Z,5.65
2022-08-16T18:53:36.122Z,6.97
2022-08-16T18:56:56.989Z,6.20
2022-08-16T18:59:33.263Z,10.60
2022-08-16T19:02:57.397Z,7.70
2022-08-16T19:05:39.056Z,7.50
2022-08-16T19:11:19.307Z,8.77
2022-08-16T19:14:07.480Z,9.25
2022-08-16T19:16:56.584Z,10.10
2022-08-16T19:19:44.477Z,7.22
2022-08-16T19:22:59.953Z,7.20
2022-08-16T19:25:49.611Z,10.20
2022-08-16T19:28:52.087Z,11.18
2022-08-16T19:31:47.859Z,8.85
2022-08-16T19:34:35.682Z,9.70
2022-08-16T19:37:23.328Z,8.23
2022-08-16T19:40:37.549Z,6.60
2022-08-16T19:43:22.881Z,10.63
2022-08-16T19:46:11.364Z,7.07
2022-08-16T19:48:59.086Z,7.20
2022-08-16T19:51:46.977Z,11.27
2022-08-16T19:54:40.175Z,9.60
2022-08-16T19:57:30.978Z,6.95
2022-08-16T20:00:19.435Z,12.88
2022-08-16T20:03:14.294Z,20.80
2022-08-16T20:06:02.297Z,10.00
2022-08-16T20:08:50.029Z,10.15
2022-08-16T20:11:37.748Z,10.18
2022-08-16T20:14:27.328Z,10.05
2022-08-16T20:17:16.460Z,8.38
2022-08-16T20:20:04.111Z,12.07
2022-08-16T20:22:54.938Z,13.55
2022-08-16T20:25:49.527Z,10.05
2022-08-16T20:28:53.146Z,10.77
2022-08-16T20:31:43.916Z,11.38
2022-08-16T20:34:31.473Z,9.63
2022-08-16T20:37:22.191Z,11.45
2022-08-16T20:40:34.818Z,14.50
2022-08-16T20:43:23.008Z,10.32
2022-08-16T20:46:10.959Z,8.27
2022-08-16T20:49:00.677Z,10.57
2022-08-16T20:51:51.715Z,9.27
2022-08-16T20:54:41.776Z,10.25
2022-08-16T20:57:28.653Z,12.97
2022-08-16T21:00:17.127Z,12.48
2022-08-16T21:03:08.761Z,9.43
2022-08-16T21:06:02.156Z,10.07
2022-08-16T21:08:53.879Z,10.95
2022-08-16T21:11:42.808Z,10.50
2022-08-16T21:14:34.320Z,10.60
2022-08-16T21:17:22.511Z,13.25
2022-08-16T21:20:10.960Z,9.63
2022-08-16T21:23:02.211Z,16.25
2022-08-16T21:25:59.103Z,16.77
2022-08-16T21:28:47.893Z,12.10
2022-08-16T21:31:36.190Z,14.30
2022-08-16T21:34:24.289Z,17.15
2022-08-16T21:37:12.345Z,10.30
2022-08-16T21:40:05.971Z,15.65
2022-08-16T21:42:54.544Z,14.07
2022-08-16T21:45:44.476Z,10.63
2022-08-16T21:48:34.536Z,16.05
2022-08-16T21:51:26.154Z,21.30
2022-08-16T21:54:13.976Z,31.88
2022-08-16T21:57:04.028Z,21.25
2022-08-16T21:59:53.697Z,19.17
2022-08-16T22:02:42.770Z,20.45
2022-08-16T22:05:32.218Z,21.45
2022-08-16T22:08:20.901Z,16.80
2022-08-16T22:11:09.653Z,16.17
2022-08-16T22:13:59.516Z,12.27
2022-08-16T22:16:47.412Z,20.75
2022-08-16T22:19:35.092Z,20.83
2022-08-16T22:22:22.716Z,16.02
2022-08-16T22:25:11.025Z,17.05
2022-08-16T22:27:58.533Z,17.02
2022-08-16T22:30:47.932Z,14.90
2022-08-16T22:33:35.439Z,18.08
2022-08-16T22:36:23.488Z,13.85
2022-08-16T22:39:16.597Z,13.70
2022-08-16T22:42:08.511Z,17.50
2022-08-16T22:44:56.557Z,14.57
2022-08-16T22:47:46.279Z,17.17
2022-08-16T22:50:36.162Z,13.02
2022-08-16T22:53:24.166Z,15.27
2022-08-16T22:56:12.282Z,13.70
2022-08-16T22:59:00.119Z,16.50
2022-08-16T23:01:47.968Z,11.07
2022-08-16T23:04:37.075Z,14.68
2022-08-16T23:07:25.694Z,11.07
2022-08-16T23:10:13.523Z,10.27
2022-08-16T23:13:04.728Z,14.63
2022-08-16T23:15:55.479Z,10.07
2022-08-16T23:18:44.175Z,8.57
2022-08-16T23:21:33.968Z,10.57
2022-08-16T23:24:21.481Z,10.35
2022-08-16T23:27:09.421Z,10.73
2022-08-16T23:29:57.287Z,12.88
2022-08-16T23:32:46.983Z,10.82
2022-08-16T23:35:45.070Z,9.77
2022-08-16T23:38:37.922Z,11.63
2022-08-16T23:44:56.965Z,11.05
2022-08-16T23:47:21.782Z,10.98
2022-08-16T23:50:09.573Z,12.75
2022-08-16T23:53:01.196Z,9.75
2022-08-16T23:55:53.078Z,13.40
2022-08-16T23:58:43.787Z,18.00
